sensor_id;sensor_type;location;lat;lon;timestamp;temperature;humidity
33717;DHT22;20046;50.746;7.072;2023-10-19T00:01:07;11.20;99.90
33717;DHT22;20046;50.746;7.072;2023-10-19T00:03:34;11.30;99.90
33717;DHT22;20046;50.746;7.072;2023-10-19T00:05:59;11.30;99.90
33717;DHT22;20046;50.746;7.072;2023-10-19T00:08:25;11.30;99.90
33717;DHT22;20046;50.746;7.072;2023-10-19T00:10:54;11.30;99.90
33717;DHT22;20046;50.746;7.072;2023-10-19T00:13:37;11.40;99.90
33717;DHT22;20046;50.746;7.072;2023-10-19T00:16:07;11.40;99.90
33717;DHT22;20046;50.746;7.072;2023-10-19T00:18:44;11.40;99.90
33717;DHT22;20046;50.746;7.072;2023-10-19T00:21:13;11.40;99.90
33717;DHT22;20046;50.746;7.072;2023-10-19T00:23:57;11.40;99.90
33717;DHT22;20046;50.746;7.072;2023-10-19T00:26:24;11.40;99.90
33717;DHT22;20046;50.746;7.072;2023-10-19T00:28:55;11.50;99.90
33717;DHT22;20046;50.746;7.072;2023-10-19T00:31:25;11.50;99.90
33717;DHT22;20046;50.746;7.072;2023-10-19T00:33:52;11.50;99.90
33717;DHT22;20046;50.746;7.072;2023-10-19T00:36:20;11.50;99.90
33717;DHT22;20046;50.746;7.072;2023-10-19T00:38:46;11.50;99.90
33717;DHT22;20046;50.746;7.072;2023-10-19T00:41:17;11.40;99.90
33717;DHT22;20046;50.746;7.072;2023-10-19T00:43:47;11.40;99.90
33717;DHT22;20046;50.746;7.072;2023-10-19T00:46:20;11.40;99.90
33717;DHT22;20046;50.746;7.072;2023-10-19T00:48:56;11.40;99.90
33717;DHT22;20046;50.746;7.072;2023-10-19T00:51:28;11.40;99.90
33717;DHT22;20046;50.746;7.072;2023-10-19T00:54:11;11.40;99.90
33717;DHT22;20046;50.746;7.072;2023-10-19T00:56:46;11.40;99.90
33717;DHT22;20046;50.746;7.072;2023-10-19T00:59:18;11.30;99.90
33717;DHT22;20046;50.746;7.072;2023-10-19T01:01:53;11.30;99.90
33717;DHT22;20046;50.746;7.072;2023-10-19T01:04:22;11.30;99.90
33717;DHT22;20046;50.746;7.072;2023-10-19T01:06:57;11.40;99.90
33717;DHT22;20046;50.746;7.072;2023-10-19T01:09:32;11.30;99.90
33717;DHT22;20046;50.746;7.072;2023-10-19T01:12:02;11.30;99.90
33717;DHT22;20046;50.746;7.072;2023-10-19T01:15:21;11.30;99.90
33717;DHT22;20046;50.746;7.072;2023-10-19T01:17:58;11.40;99.90
33717;DHT22;20046;50.746;7.072;2023-10-19T01:20:29;11.40;99.90
33717;DHT22;20046;50.746;7.072;2023-10-19T01:23:02;11.30;99.90
33717;DHT22;20046;50.746;7.072;2023-10-19T01:25:55;11.40;99.90
33717;DHT22;20046;50.746;7.072;2023-10-19T01:31:18;11.40;99.90
33717;DHT22;20046;50.746;7.072;2023-10-19T01:33:54;11.30;99.90
33717;DHT22;20046;50.746;7.072;2023-10-19T01:36:21;11.40;99.90
33717;DHT22;20046;50.746;7.072;2023-10-19T01:38:47;11.40;99.90
33717;DHT22;20046;50.746;7.072;2023-10-19T01:41:13;11.50;99.90
33717;DHT22;20046;50.746;7.072;2023-10-19T01:43:43;11.50;99.90
33717;DHT22;20046;50.746;7.072;2023-10-19T01:46:10;11.50;99.90
33717;DHT22;20046;50.746;7.072;2023-10-19T01:48:42;11.50;99.90
33717;DHT22;20046;50.746;7.072;2023-10-19T01:51:10;11.60;99.90
33717;DHT22;20046;50.746;7.072;2023-10-19T01:53:37;11.60;99.90
33717;DHT22;20046;50.746;7.072;2023-10-19T01:56:09;11.60;99.90
33717;DHT22;20046;50.746;7.072;2023-10-19T01:58:39;11.60;99.90
33717;DHT22;20046;50.746;7.072;2023-10-19T02:01:05;11.60;99.90
33717;DHT22;20046;50.746;7.072;2023-10-19T02:03:43;11.70;99.90
33717;DHT22;20046;50.746;7.072;2023-10-19T02:06:14;11.60;99.90
33717;DHT22;20046;50.746;7.072;2023-10-19T02:08:54;11.60;99.90
33717;DHT22;20046;50.746;7.072;2023-10-19T02:11:26;11.60;99.90
33717;DHT22;20046;50.746;7.072;2023-10-19T02:13:55;11.60;99.90
33717;DHT22;20046;50.746;7.072;2023-10-19T02:16:21;11.60;99.90
33717;DHT22;20046;50.746;7.072;2023-10-19T02:18:58;11.60;99.90
33717;DHT22;20046;50.746;7.072;2023-10-19T02:21:23;11.60;99.90
33717;DHT22;20046;50.746;7.072;2023-10-19T02:23:53;11.60;99.90
33717;DHT22;20046;50.746;7.072;2023-10-19T02:26:20;11.60;99.90
33717;DHT22;20046;50.746;7.072;2023-10-19T02:28:48;11.60;99.90
33717;DHT22;20046;50.746;7.072;2023-10-19T02:31:16;11.60;99.90
33717;DHT22;20046;50.746;7.072;2023-10-19T02:33:49;11.70;99.90
33717;DHT22;20046;50.746;7.072;2023-10-19T02:36:24;11.60;99.90
33717;DHT22;20046;50.746;7.072;2023-10-19T02:38:53;11.70;99.90
33717;DHT22;20046;50.746;7.072;2023-10-19T02:41:19;11.70;99.90
33717;DHT22;20046;50.746;7.072;2023-10-19T02:43:49;11.70;99.90
33717;DHT22;20046;50.746;7.072;2023-10-19T02:46:28;11.80;99.90
33717;DHT22;20046;50.746;7.072;2023-10-19T02:48:54;11.80;99.90
33717;DHT22;20046;50.746;7.072;2023-10-19T02:51:20;11.90;99.90
33717;DHT22;20046;50.746;7.072;2023-10-19T02:53:45;11.90;99.90
33717;DHT22;20046;50.746;7.072;2023-10-19T02:56:13;12.00;99.90
33717;DHT22;20046;50.746;7.072;2023-10-19T02:58:42;12.10;99.90
33717;DHT22;20046;50.746;7.072;2023-10-19T03:01:19;12.10;99.90
33717;DHT22;20046;50.746;7.072;2023-10-19T03:03:51;12.10;99.90
33717;DHT22;20046;50.746;7.072;2023-10-19T03:06:22;12.10;99.90
33717;DHT22;20046;50.746;7.072;2023-10-19T03:08:49;12.10;99.90
33717;DHT22;20046;50.746;7.072;2023-10-19T03:11:25;12.10;99.90
33717;DHT22;20046;50.746;7.072;2023-10-19T03:13:53;12.00;99.90
33717;DHT22;20046;50.746;7.072;2023-10-19T03:16:19;12.00;99.90
33717;DHT22;20046;50.746;7.072;2023-10-19T03:18:46;12.00;99.90
33717;DHT22;20046;50.746;7.072;2023-10-19T03:21:11;12.00;99.90
33717;DHT22;20046;50.746;7.072;2023-10-19T03:23:37;12.00;99.90
33717;DHT22;20046;50.746;7.072;2023-10-19T03:26:03;12.00;99.90
33717;DHT22;20046;50.746;7.072;2023-10-19T03:28:48;11.90;99.90
33717;DHT22;20046;50.746;7.072;2023-10-19T03:31:14;11.90;99.90
33717;DHT22;20046;50.746;7.072;2023-10-19T03:33:44;11.90;99.90
33717;DHT22;20046;50.746;7.072;2023-10-19T03:36:13;11.90;99.90
33717;DHT22;20046;50.746;7.072;2023-10-19T03:38:39;11.80;99.90
33717;DHT22;20046;50.746;7.072;2023-10-19T03:41:06;11.80;99.90
33717;DHT22;20046;50.746;7.072;2023-10-19T03:43:33;11.80;99.90
33717;DHT22;20046;50.746;7.072;2023-10-19T03:46:02;11.80;99.90
33717;DHT22;20046;50.746;7.072;2023-10-19T03:48:31;11.80;99.90
33717;DHT22;20046;50.746;7.072;2023-10-19T03:51:03;11.80;99.90
33717;DHT22;20046;50.746;7.072;2023-10-19T03:53:29;11.80;99.90
33717;DHT22;20046;50.746;7.072;2023-10-19T03:55:56;11.80;99.90
33717;DHT22;20046;50.746;7.072;2023-10-19T03:58:21;11.90;99.90
33717;DHT22;20046;50.746;7.072;2023-10-19T04:00:48;11.90;99.90
33717;DHT22;20046;50.746;7.072;2023-10-19T04:03:15;11.90;99.90
33717;DHT22;20046;50.746;7.072;2023-10-19T04:05:43;11.90;99.90
33717;DHT22;20046;50.746;7.072;2023-10-19T04:08:12;11.90;99.90
33717;DHT22;20046;50.746;7.072;2023-10-19T04:10:41;11.90;99.90
33717;DHT22;20046;50.746;7.072;2023-10-19T04:13:11;11.90;99.90
33717;DHT22;20046;50.746;7.072;2023-10-19T04:15:37;12.00;99.90
33717;DHT22;20046;50.746;7.072;2023-10-19T04:18:05;12.00;99.90
33717;DHT22;20046;50.746;7.072;2023-10-19T04:20:34;12.00;99.90
33717;DHT22;20046;50.746;7.072;2023-10-19T04:23:09;12.10;99.90
33717;DHT22;20046;50.746;7.072;2023-10-19T04:25:36;12.20;99.90
33717;DHT22;20046;50.746;7.072;2023-10-19T04:28:02;12.30;99.90
33717;DHT22;20046;50.746;7.072;2023-10-19T04:30:28;12.40;99.90
33717;DHT22;20046;50.746;7.072;2023-10-19T04:32:55;12.40;99.90
33717;DHT22;20046;50.746;7.072;2023-10-19T04:35:22;12.50;99.90
33717;DHT22;20046;50.746;7.072;2023-10-19T04:37:51;12.50;99.90
33717;DHT22;20046;50.746;7.072;2023-10-19T04:40:20;12.50;99.90
33717;DHT22;20046;50.746;7.072;2023-10-19T04:42:46;12.50;99.90
33717;DHT22;20046;50.746;7.072;2023-10-19T04:45:12;12.50;99.90
33717;DHT22;20046;50.746;7.072;2023-10-19T04:47:39;12.50;99.90
33717;DHT22;20046;50.746;7.072;2023-10-19T04:50:05;12.60;99.90
33717;DHT22;20046;50.746;7.072;2023-10-19T04:52:31;12.60;99.90
33717;DHT22;20046;50.746;7.072;2023-10-19T04:54:58;12.60;99.90
33717;DHT22;20046;50.746;7.072;2023-10-19T04:57:24;12.60;99.90
33717;DHT22;20046;50.746;7.072;2023-10-19T04:59:51;12.60;99.90
33717;DHT22;20046;50.746;7.072;2023-10-19T05:02:17;12.60;99.90
33717;DHT22;20046;50.746;7.072;2023-10-19T05:04:43;12.70;99.90
33717;DHT22;20046;50.746;7.072;2023-10-19T05:07:09;12.70;99.90
33717;DHT22;20046;50.746;7.072;2023-10-19T05:09:38;12.80;99.90
33717;DHT22;20046;50.746;7.072;2023-10-19T05:12:06;12.80;99.90
33717;DHT22;20046;50.746;7.072;2023-10-19T05:14:35;12.80;99.90
33717;DHT22;20046;50.746;7.072;2023-10-19T05:17:02;12.80;99.90
33717;DHT22;20046;50.746;7.072;2023-10-19T05:19:33;12.80;99.90
33717;DHT22;20046;50.746;7.072;2023-10-19T05:22:01;12.90;99.90
33717;DHT22;20046;50.746;7.072;2023-10-19T05:24:27;12.90;99.90
33717;DHT22;20046;50.746;7.072;2023-10-19T05:26:54;12.90;99.90
33717;DHT22;20046;50.746;7.072;2023-10-19T05:29:20;12.90;99.90
33717;DHT22;20046;50.746;7.072;2023-10-19T05:31:46;13.00;99.90
33717;DHT22;20046;50.746;7.072;2023-10-19T05:34:12;13.00;99.90
33717;DHT22;20046;50.746;7.072;2023-10-19T05:36:38;13.00;99.90
33717;DHT22;20046;50.746;7.072;2023-10-19T05:39:05;13.10;99.90
33717;DHT22;20046;50.746;7.072;2023-10-19T05:41:33;13.10;99.90
33717;DHT22;20046;50.746;7.072;2023-10-19T05:43:59;13.10;99.90
33717;DHT22;20046;50.746;7.072;2023-10-19T05:46:25;13.10;99.90
33717;DHT22;20046;50.746;7.072;2023-10-19T05:48:51;13.10;99.90
33717;DHT22;20046;50.746;7.072;2023-10-19T05:51:19;13.10;99.90
33717;DHT22;20046;50.746;7.072;2023-10-19T05:53:44;13.10;99.90
33717;DHT22;20046;50.746;7.072;2023-10-19T05:56:11;13.10;99.90
33717;DHT22;20046;50.746;7.072;2023-10-19T05:58:36;13.10;99.90
33717;DHT22;20046;50.746;7.072;2023-10-19T06:01:02;13.10;99.90
33717;DHT22;20046;50.746;7.072;2023-10-19T06:03:28;13.20;99.90
33717;DHT22;20046;50.746;7.072;2023-10-19T06:05:54;13.20;99.90
33717;DHT22;20046;50.746;7.072;2023-10-19T06:08:22;13.20;99.90
33717;DHT22;20046;50.746;7.072;2023-10-19T06:10:53;13.20;99.90
33717;DHT22;20046;50.746;7.072;2023-10-19T06:13:19;13.30;99.90
33717;DHT22;20046;50.746;7.072;2023-10-19T06:15:45;13.30;99.90
33717;DHT22;20046;50.746;7.072;2023-10-19T06:18:11;13.30;99.90
33717;DHT22;20046;50.746;7.072;2023-10-19T06:20:43;13.30;99.90
33717;DHT22;20046;50.746;7.072;2023-10-19T06:23:09;13.40;99.90
33717;DHT22;20046;50.746;7.072;2023-10-19T06:25:37;13.40;99.90
33717;DHT22;20046;50.746;7.072;2023-10-19T06:28:03;13.40;99.90
33717;DHT22;20046;50.746;7.072;2023-10-19T06:30:29;13.40;99.90
33717;DHT22;20046;50.746;7.072;2023-10-19T06:32:57;13.40;99.90
33717;DHT22;20046;50.746;7.072;2023-10-19T06:35:26;13.50;99.90
33717;DHT22;20046;50.746;7.072;2023-10-19T06:37:53;13.50;99.90
33717;DHT22;20046;50.746;7.072;2023-10-19T06:40:20;13.50;99.90
33717;DHT22;20046;50.746;7.072;2023-10-19T06:42:47;13.50;99.90
33717;DHT22;20046;50.746;7.072;2023-10-19T06:45:14;13.50;99.90
33717;DHT22;20046;50.746;7.072;2023-10-19T06:47:45;13.50;99.90
33717;DHT22;20046;50.746;7.072;2023-10-19T06:50:12;13.60;99.90
33717;DHT22;20046;50.746;7.072;2023-10-19T06:52:38;13.60;99.90
33717;DHT22;20046;50.746;7.072;2023-10-19T06:55:05;13.60;99.90
33717;DHT22;20046;50.746;7.072;2023-10-19T06:57:33;13.60;99.90
33717;DHT22;20046;50.746;7.072;2023-10-19T06:59:59;13.60;99.90
33717;DHT22;20046;50.746;7.072;2023-10-19T07:02:25;13.70;99.90
33717;DHT22;20046;50.746;7.072;2023-10-19T07:04:52;13.70;99.90
33717;DHT22;20046;50.746;7.072;2023-10-19T07:07:17;13.70;99.90
33717;DHT22;20046;50.746;7.072;2023-10-19T07:09:43;13.80;99.90
33717;DHT22;20046;50.746;7.072;2023-10-19T07:12:09;13.80;99.90
33717;DHT22;20046;50.746;7.072;2023-10-19T07:14:35;13.90;99.90
33717;DHT22;20046;50.746;7.072;2023-10-19T07:17:01;13.90;99.90
33717;DHT22;20046;50.746;7.072;2023-10-19T07:19:27;13.90;99.90
33717;DHT22;20046;50.746;7.072;2023-10-19T07:21:52;14.00;99.90
33717;DHT22;20046;50.746;7.072;2023-10-19T07:24:24;14.00;99.90
33717;DHT22;20046;50.746;7.072;2023-10-19T07:26:53;14.10;99.90
33717;DHT22;20046;50.746;7.072;2023-10-19T07:29:20;14.10;99.90
33717;DHT22;20046;50.746;7.072;2023-10-19T07:31:46;14.10;99.90
33717;DHT22;20046;50.746;7.072;2023-10-19T07:34:11;14.10;99.90
33717;DHT22;20046;50.746;7.072;2023-10-19T07:36:40;14.10;99.90
33717;DHT22;20046;50.746;7.072;2023-10-19T07:39:08;14.20;99.90
33717;DHT22;20046;50.746;7.072;2023-10-19T07:41:40;14.30;99.90
33717;DHT22;20046;50.746;7.072;2023-10-19T07:44:05;14.30;99.90
33717;DHT22;20046;50.746;7.072;2023-10-19T07:46:31;14.40;99.90
33717;DHT22;20046;50.746;7.072;2023-10-19T07:48:57;14.40;99.90
33717;DHT22;20046;50.746;7.072;2023-10-19T07:51:25;14.50;99.90
33717;DHT22;20046;50.746;7.072;2023-10-19T07:53:50;14.60;99.90
33717;DHT22;20046;50.746;7.072;2023-10-19T07:56:17;14.70;99.90
33717;DHT22;20046;50.746;7.072;2023-10-19T07:58:43;14.80;99.90
33717;DHT22;20046;50.746;7.072;2023-10-19T08:01:08;14.90;99.90
33717;DHT22;20046;50.746;7.072;2023-10-19T08:03:34;14.90;99.90
33717;DHT22;20046;50.746;7.072;2023-10-19T08:06:00;15.00;99.90
33717;DHT22;20046;50.746;7.072;2023-10-19T08:08:26;15.10;99.90
33717;DHT22;20046;50.746;7.072;2023-10-19T08:10:59;15.20;99.90
33717;DHT22;20046;50.746;7.072;2023-10-19T08:13:24;15.30;99.90
33717;DHT22;20046;50.746;7.072;2023-10-19T08:15:51;15.40;99.90
33717;DHT22;20046;50.746;7.072;2023-10-19T08:18:17;15.60;99.90
33717;DHT22;20046;50.746;7.072;2023-10-19T08:20:43;15.70;99.90
33717;DHT22;20046;50.746;7.072;2023-10-19T08:23:11;15.80;99.90
33717;DHT22;20046;50.746;7.072;2023-10-19T08:25:39;16.00;99.90
33717;DHT22;20046;50.746;7.072;2023-10-19T08:28:05;16.00;99.90
33717;DHT22;20046;50.746;7.072;2023-10-19T08:30:32;16.00;99.90
33717;DHT22;20046;50.746;7.072;2023-10-19T08:32:59;16.20;99.90
33717;DHT22;20046;50.746;7.072;2023-10-19T08:35:26;16.20;99.90
33717;DHT22;20046;50.746;7.072;2023-10-19T08:37:56;16.20;99.90
33717;DHT22;20046;50.746;7.072;2023-10-19T08:40:24;16.30;99.90
33717;DHT22;20046;50.746;7.072;2023-10-19T08:42:52;16.30;99.90
33717;DHT22;20046;50.746;7.072;2023-10-19T08:45:19;16.20;99.90
33717;DHT22;20046;50.746;7.072;2023-10-19T08:48:00;16.20;99.90
33717;DHT22;20046;50.746;7.072;2023-10-19T08:50:31;16.20;99.90
33717;DHT22;20046;50.746;7.072;2023-10-19T08:52:58;16.30;99.90
33717;DHT22;20046;50.746;7.072;2023-10-19T08:55:25;16.40;99.90
33717;DHT22;20046;50.746;7.072;2023-10-19T08:57:51;16.50;99.90
33717;DHT22;20046;50.746;7.072;2023-10-19T09:00:17;16.60;99.90
33717;DHT22;20046;50.746;7.072;2023-10-19T09:02:47;16.80;99.90
33717;DHT22;20046;50.746;7.072;2023-10-19T09:05:13;16.80;99.90
33717;DHT22;20046;50.746;7.072;2023-10-19T09:07:54;16.90;99.90
33717;DHT22;20046;50.746;7.072;2023-10-19T09:10:27;17.10;99.90
33717;DHT22;20046;50.746;7.072;2023-10-19T09:13:04;17.10;99.90
33717;DHT22;20046;50.746;7.072;2023-10-19T09:15:33;17.10;99.90
33717;DHT22;20046;50.746;7.072;2023-10-19T09:18:15;17.20;99.90
33717;DHT22;20046;50.746;7.072;2023-10-19T09:20:42;17.40;99.90
33717;DHT22;20046;50.746;7.072;2023-10-19T09:23:24;17.70;99.90
33717;DHT22;20046;50.746;7.072;2023-10-19T09:25:51;18.20;99.90
33717;DHT22;20046;50.746;7.072;2023-10-19T09:28:20;18.60;99.90
33717;DHT22;20046;50.746;7.072;2023-10-19T09:30:47;18.90;99.90
33717;DHT22;20046;50.746;7.072;2023-10-19T09:33:14;19.30;99.90
33717;DHT22;20046;50.746;7.072;2023-10-19T09:35:46;19.70;99.90
33717;DHT22;20046;50.746;7.072;2023-10-19T09:38:14;20.30;99.90
33717;DHT22;20046;50.746;7.072;2023-10-19T09:40:40;20.80;99.90
33717;DHT22;20046;50.746;7.072;2023-10-19T09:43:15;21.10;99.90
33717;DHT22;20046;50.746;7.072;2023-10-19T09:45:42;21.10;99.90
33717;DHT22;20046;50.746;7.072;2023-10-19T09:48:15;20.80;99.90
33717;DHT22;20046;50.746;7.072;2023-10-19T09:50:44;20.60;99.90
33717;DHT22;20046;50.746;7.072;2023-10-19T09:53:11;20.20;99.90
33717;DHT22;20046;50.746;7.072;2023-10-19T09:55:40;20.00;99.90
33717;DHT22;20046;50.746;7.072;2023-10-19T09:58:31;19.80;99.90
33717;DHT22;20046;50.746;7.072;2023-10-19T10:01:00;20.00;99.90
33717;DHT22;20046;50.746;7.072;2023-10-19T10:03:50;20.20;99.90
33717;DHT22;20046;50.746;7.072;2023-10-19T10:06:30;20.40;99.90
33717;DHT22;20046;50.746;7.072;2023-10-19T10:08:58;20.80;99.90
33717;DHT22;20046;50.746;7.072;2023-10-19T10:11:26;21.10;99.90
33717;DHT22;20046;50.746;7.072;2023-10-19T10:13:52;21.30;99.90
33717;DHT22;20046;50.746;7.072;2023-10-19T10:16:26;21.30;99.90
33717;DHT22;20046;50.746;7.072;2023-10-19T10:18:58;21.30;99.90
33717;DHT22;20046;50.746;7.072;2023-10-19T10:21:29;21.00;99.90
33717;DHT22;20046;50.746;7.072;2023-10-19T10:23:57;20.80;99.90
33717;DHT22;20046;50.746;7.072;2023-10-19T10:26:25;20.50;99.90
33717;DHT22;20046;50.746;7.072;2023-10-19T10:31:42;19.90;99.90
33717;DHT22;20046;50.746;7.072;2023-10-19T10:34:09;19.60;99.90
33717;DHT22;20046;50.746;7.072;2023-10-19T10:37:01;19.40;99.90
33717;DHT22;20046;50.746;7.072;2023-10-19T10:39:31;19.20;99.90
33717;DHT22;20046;50.746;7.072;2023-10-19T10:42:05;19.20;99.90
33717;DHT22;20046;50.746;7.072;2023-10-19T10:44:41;19.10;99.90
33717;DHT22;20046;50.746;7.072;2023-10-19T10:47:11;18.90;99.90
33717;DHT22;20046;50.746;7.072;2023-10-19T10:49:58;18.80;99.90
33717;DHT22;20046;50.746;7.072;2023-10-19T10:54:50;18.70;99.90
33717;DHT22;20046;50.746;7.072;2023-10-19T10:57:16;18.60;99.90
33717;DHT22;20046;50.746;7.072;2023-10-19T10:59:41;18.50;99.90
33717;DHT22;20046;50.746;7.072;2023-10-19T11:02:17;18.50;99.90
33717;DHT22;20046;50.746;7.072;2023-10-19T11:04:44;18.40;99.90
33717;DHT22;20046;50.746;7.072;2023-10-19T11:07:18;18.50;99.90
33717;DHT22;20046;50.746;7.072;2023-10-19T11:09:45;18.50;99.90
33717;DHT22;20046;50.746;7.072;2023-10-19T11:12:14;18.50;99.90
33717;DHT22;20046;50.746;7.072;2023-10-19T11:17:19;18.50;99.90
33717;DHT22;20046;50.746;7.072;2023-10-19T11:19:47;18.40;99.90
33717;DHT22;20046;50.746;7.072;2023-10-19T11:22:13;18.30;99.90
33717;DHT22;20046;50.746;7.072;2023-10-19T11:24:38;18.30;99.90
33717;DHT22;20046;50.746;7.072;2023-10-19T11:27:08;18.20;99.90
33717;DHT22;20046;50.746;7.072;2023-10-19T11:29:35;18.10;99.90
33717;DHT22;20046;50.746;7.072;2023-10-19T11:32:01;18.10;99.90
33717;DHT22;20046;50.746;7.072;2023-10-19T11:34:28;18.10;99.90
33717;DHT22;20046;50.746;7.072;2023-10-19T11:36:56;18.10;99.90
33717;DHT22;20046;50.746;7.072;2023-10-19T11:39:23;18.10;99.90
33717;DHT22;20046;50.746;7.072;2023-10-19T11:41:49;18.10;99.90
33717;DHT22;20046;50.746;7.072;2023-10-19T11:44:15;18.00;99.90
33717;DHT22;20046;50.746;7.072;2023-10-19T11:46:40;17.90;99.90
33717;DHT22;20046;50.746;7.072;2023-10-19T11:49:06;17.90;99.90
33717;DHT22;20046;50.746;7.072;2023-10-19T11:51:31;17.90;99.90
33717;DHT22;20046;50.746;7.072;2023-10-19T11:53:57;17.80;99.90
33717;DHT22;20046;50.746;7.072;2023-10-19T11:56:24;17.70;99.90
33717;DHT22;20046;50.746;7.072;2023-10-19T11:58:50;17.70;99.90
33717;DHT22;20046;50.746;7.072;2023-10-19T12:01:16;17.70;99.90
33717;DHT22;20046;50.746;7.072;2023-10-19T12:03:44;17.70;99.90
33717;DHT22;20046;50.746;7.072;2023-10-19T12:06:13;17.70;99.90
33717;DHT22;20046;50.746;7.072;2023-10-19T12:08:44;17.70;99.90
33717;DHT22;20046;50.746;7.072;2023-10-19T12:11:10;17.80;99.90
33717;DHT22;20046;50.746;7.072;2023-10-19T12:13:45;17.70;99.90
33717;DHT22;20046;50.746;7.072;2023-10-19T12:16:12;17.80;99.90
33717;DHT22;20046;50.746;7.072;2023-10-19T12:18:47;17.70;99.90
33717;DHT22;20046;50.746;7.072;2023-10-19T12:21:14;17.70;99.90
33717;DHT22;20046;50.746;7.072;2023-10-19T12:23:44;17.70;99.90
33717;DHT22;20046;50.746;7.072;2023-10-19T12:26:10;17.70;99.90
33717;DHT22;20046;50.746;7.072;2023-10-19T12:28:40;17.70;99.90
33717;DHT22;20046;50.746;7.072;2023-10-19T12:31:07;17.70;99.90
33717;DHT22;20046;50.746;7.072;2023-10-19T12:33:36;17.60;99.90
33717;DHT22;20046;50.746;7.072;2023-10-19T12:36:04;17.60;99.90
33717;DHT22;20046;50.746;7.072;2023-10-19T12:38:50;17.50;99.90
33717;DHT22;20046;50.746;7.072;2023-10-19T12:41:17;17.40;99.90
33717;DHT22;20046;50.746;7.072;2023-10-19T12:43:43;17.30;99.90
33717;DHT22;20046;50.746;7.072;2023-10-19T12:46:09;17.20;99.90
33717;DHT22;20046;50.746;7.072;2023-10-19T12:48:35;17.20;99.90
33717;DHT22;20046;50.746;7.072;2023-10-19T12:51:06;17.10;99.90
33717;DHT22;20046;50.746;7.072;2023-10-19T12:53:32;17.10;99.90
33717;DHT22;20046;50.746;7.072;2023-10-19T12:55:59;17.10;99.90
33717;DHT22;20046;50.746;7.072;2023-10-19T12:58:25;17.00;99.90
33717;DHT22;20046;50.746;7.072;2023-10-19T13:00:53;17.10;99.90
33717;DHT22;20046;50.746;7.072;2023-10-19T13:03:20;17.10;99.90
33717;DHT22;20046;50.746;7.072;2023-10-19T13:05:47;17.10;99.90
33717;DHT22;20046;50.746;7.072;2023-10-19T13:08:15;17.10;99.90
33717;DHT22;20046;50.746;7.072;2023-10-19T13:10:42;17.10;99.90
33717;DHT22;20046;50.746;7.072;2023-10-19T13:13:13;17.10;99.90
33717;DHT22;20046;50.746;7.072;2023-10-19T13:15:41;17.00;99.90
33717;DHT22;20046;50.746;7.072;2023-10-19T13:18:08;17.00;99.90
33717;DHT22;20046;50.746;7.072;2023-10-19T13:20:39;17.00;99.90
33717;DHT22;20046;50.746;7.072;2023-10-19T13:23:07;16.90;99.90
33717;DHT22;20046;50.746;7.072;2023-10-19T13:25:37;16.80;99.90
33717;DHT22;20046;50.746;7.072;2023-10-19T13:28:27;16.80;99.90
33717;DHT22;20046;50.746;7.072;2023-10-19T13:30:53;16.80;99.90
33717;DHT22;20046;50.746;7.072;2023-10-19T13:33:19;16.70;99.90
33717;DHT22;20046;50.746;7.072;2023-10-19T13:35:49;16.70;99.90
33717;DHT22;20046;50.746;7.072;2023-10-19T13:38:17;16.60;99.90
33717;DHT22;20046;50.746;7.072;2023-10-19T13:40:43;16.60;99.90
33717;DHT22;20046;50.746;7.072;2023-10-19T13:43:12;16.60;99.90
33717;DHT22;20046;50.746;7.072;2023-10-19T13:45:42;16.50;99.90
33717;DHT22;20046;50.746;7.072;2023-10-19T13:48:11;16.50;99.90
33717;DHT22;20046;50.746;7.072;2023-10-19T13:50:42;16.50;99.90
33717;DHT22;20046;50.746;7.072;2023-10-19T13:53:13;16.50;99.90
33717;DHT22;20046;50.746;7.072;2023-10-19T13:55:39;16.50;99.90
33717;DHT22;20046;50.746;7.072;2023-10-19T13:58:05;16.40;99.90
33717;DHT22;20046;50.746;7.072;2023-10-19T14:00:32;16.40;99.90
33717;DHT22;20046;50.746;7.072;2023-10-19T14:03:06;16.40;99.90
33717;DHT22;20046;50.746;7.072;2023-10-19T14:05:36;16.40;99.90
33717;DHT22;20046;50.746;7.072;2023-10-19T14:08:03;16.40;99.90
33717;DHT22;20046;50.746;7.072;2023-10-19T14:10:29;16.30;99.90
33717;DHT22;20046;50.746;7.072;2023-10-19T14:12:56;16.30;99.90
33717;DHT22;20046;50.746;7.072;2023-10-19T14:15:22;16.30;99.90
33717;DHT22;20046;50.746;7.072;2023-10-19T14:17:48;16.40;99.90
33717;DHT22;20046;50.746;7.072;2023-10-19T14:20:16;16.40;99.90
33717;DHT22;20046;50.746;7.072;2023-10-19T14:22:48;16.40;99.90
33717;DHT22;20046;50.746;7.072;2023-10-19T14:25:14;16.40;99.90
33717;DHT22;20046;50.746;7.072;2023-10-19T14:27:44;16.40;99.90
33717;DHT22;20046;50.746;7.072;2023-10-19T14:30:11;16.40;99.90
33717;DHT22;20046;50.746;7.072;2023-10-19T14:32:41;16.50;99.90
33717;DHT22;20046;50.746;7.072;2023-10-19T14:35:11;16.50;99.90
33717;DHT22;20046;50.746;7.072;2023-10-19T14:37:39;16.40;99.90
33717;DHT22;20046;50.746;7.072;2023-10-19T14:40:09;16.50;99.90
33717;DHT22;20046;50.746;7.072;2023-10-19T14:42:39;16.50;99.90
33717;DHT22;20046;50.746;7.072;2023-10-19T14:45:07;17.00;99.90
33717;DHT22;20046;50.746;7.072;2023-10-19T14:47:36;17.90;99.90
33717;DHT22;20046;50.746;7.072;2023-10-19T14:50:03;17.80;99.90
33717;DHT22;20046;50.746;7.072;2023-10-19T14:52:29;17.80;99.90
33717;DHT22;20046;50.746;7.072;2023-10-19T14:54:54;17.80;99.90
33717;DHT22;20046;50.746;7.072;2023-10-19T14:57:21;17.80;99.90
33717;DHT22;20046;50.746;7.072;2023-10-19T14:59:47;17.80;99.90
33717;DHT22;20046;50.746;7.072;2023-10-19T15:02:13;17.70;99.90
33717;DHT22;20046;50.746;7.072;2023-10-19T15:04:39;17.80;99.90
33717;DHT22;20046;50.746;7.072;2023-10-19T15:07:05;17.80;99.90
33717;DHT22;20046;50.746;7.072;2023-10-19T15:09:31;17.80;99.90
33717;DHT22;20046;50.746;7.072;2023-10-19T15:11:58;17.80;99.90
33717;DHT22;20046;50.746;7.072;2023-10-19T15:14:24;17.80;99.90
33717;DHT22;20046;50.746;7.072;2023-10-19T15:16:50;17.80;99.90
33717;DHT22;20046;50.746;7.072;2023-10-19T15:19:16;17.80;99.90
33717;DHT22;20046;50.746;7.072;2023-10-19T15:21:44;17.70;99.90
33717;DHT22;20046;50.746;7.072;2023-10-19T15:24:10;17.60;99.90
33717;DHT22;20046;50.746;7.072;2023-10-19T15:26:38;17.50;99.90
33717;DHT22;20046;50.746;7.072;2023-10-19T15:29:04;17.40;99.90
33717;DHT22;20046;50.746;7.072;2023-10-19T15:31:30;17.40;99.90
33717;DHT22;20046;50.746;7.072;2023-10-19T15:33:56;17.40;99.90
33717;DHT22;20046;50.746;7.072;2023-10-19T15:36:22;17.30;99.90
33717;DHT22;20046;50.746;7.072;2023-10-19T15:38:48;17.30;99.90
33717;DHT22;20046;50.746;7.072;2023-10-19T15:41:15;17.20;99.90
33717;DHT22;20046;50.746;7.072;2023-10-19T15:43:41;17.20;99.90
33717;DHT22;20046;50.746;7.072;2023-10-19T15:46:07;17.20;99.90
33717;DHT22;20046;50.746;7.072;2023-10-19T15:48:34;17.20;99.90
33717;DHT22;20046;50.746;7.072;2023-10-19T15:51:00;17.10;99.90